首页
METAR-TAF:

METAR-TAF

机场 :

戛纳, 法国

纬度: 43-33N, 经度: 006-57E, 海拔: 3米

当前天气观测

该预报发布于39分钟前的01:00 UTC
风速3节,风向,在北转西北东北之间变化
温度 18°C
湿度 73%
气压 1014 hPa
能见度10公里或以上
1500米以下无云,无积雨云

METAR: LFMD 180100Z AUTO 01003KT 330V040 CAVOK 18/13 Q1014

时间: 03:39 (01:39 UTC)

预报

该预报发布于11小时和39分钟前的14:00 UTC
预报有效从17日的 15点(UTC)到 18日的 15点(UTC)
风速6节,风向南转南东
能见度10公里或以上
1500米以下无云,无积雨云
成为
从 17日的 18点(UTC)到 17日的 20点(UTC)
风速3节,风向多变
成为
从 18日的 07点(UTC)到 18日的 10点(UTC)
风速10节,风向南转南东

TAF: LFMD 171400Z 1715/1815 16006KT CAVOK BECMG 1718/1720 VRB03KT BECMG 1807/1810 16010KT

超过4000个机场的气象观测和天气预报(METAR&TAF报告)。

可查询的气象台以黄色和红色小点在地图上表示。

将鼠标移到小点上方,可查看气象台名称。

然后点击查看天气观测和预报。

如需切换地图:点击带黑十字的绿色按钮放大地图;点击带横线的绿色按钮缩小地图;或者点击绿色箭头查看邻近地区的地图。


METAR-TAF: